Ana Sayfa
METAR-TAF:

METAR-TAF

Havaalanları :

Mataram, Endonezya

Enlem: 08-45-29S, Boylam: 116-16-35E, yükseklik: 97 m

Güncel hava durumu gözlemi

Rapor saat 05:30 UTC de 14 dakika önce yapıldı.
Rüzgar güney/güneydoğudan 12 kt
Sıcaklık 29°C
Nem 70%
Basınç 1010 hPa
Görüş mesafesi: 8000 m
1600 ft yükseklikte parçalı çok bulutlu

METAR: WADL 210530Z 16012KT 8000 BKN016 29/23 Q1010 NOSIG

Saat: 12:44 (05:44 UTC)

Tahmin

Rapor saat 23:00 UTC de 6 saat ve 44 dakika önce yapıldı.
Ayın 21'si saat 00 UTC'den ayın 21'si saat 24 UTC'ye kadar geçerli Tahmin
Rüzgar güneydoğudan 12 kt
Görüş mesafesi: 8000 m
1600 ft yükseklikte parçalı çok bulutlu

TAF: WADL 202300Z 2100/2124 14012KT 8000 BKN016

4.000'den fazla havaalanı için hava durumu gözlemleri ve tahminleri (METAR ve TAF raporları).

Kullanılabilir istasyonlar harita üzerinde sarı ve kırmızı noktalarla gösterilir.

İstasyonun adını görmek için fareyi noktanın üzerinde gezdirin.

Sonrasında hava gözlem ve tahminlerini görmek için tıklayın.

Haritayı değiştirmek için: yaklaştırmak için siyah artı işaretli yeşil düğmeye ve uzaklaştırmak için de eksi işaretli düğmeye hızla tıklayın; bitişik haritalar için yeşil okları kullanın.


METAR-TAF: